createdAt,value
2019-06-07T00:02:45.467Z,101128.30
2019-06-07T00:05:37.025Z,101118.96
2019-06-07T00:08:29.467Z,101110.19
2019-06-07T00:11:21.298Z,101110.47
2019-06-07T00:14:16.078Z,101106.64
2019-06-07T00:17:12.466Z,101098.11
2019-06-07T00:20:02.482Z,101098.89
2019-06-07T00:22:55.519Z,101099.73
2019-06-07T00:25:46.894Z,101100.52
2019-06-07T00:28:38.445Z,101094.58
2019-06-07T00:31:29.885Z,101099.13
2019-06-07T00:34:23.032Z,101092.11
2019-06-07T00:37:14.262Z,101091.23
2019-06-07T00:40:16.331Z,101080.54
2019-06-07T00:43:01.643Z,101085.09
2019-06-07T00:45:53.471Z,101088.08
2019-06-07T00:48:45.150Z,101085.54
2019-06-07T00:51:49.891Z,101082.92
2019-06-07T00:54:30.140Z,101078.19
2019-06-07T00:57:24.222Z,101077.80
2019-06-07T01:00:18.324Z,101070.75
2019-06-07T01:03:08.654Z,101075.23
2019-06-07T01:06:00.526Z,101072.22
2019-06-07T01:08:51.882Z,101070.84
2019-06-07T01:11:43.406Z,101061.78
2019-06-07T01:14:34.913Z,101063.66
2019-06-07T01:17:41.424Z,101057.02
2019-06-07T01:20:24.191Z,101052.92
2019-06-07T01:23:57.919Z,101046.00
2019-06-07T01:26:07.503Z,101046.64
2019-06-07T01:28:58.996Z,101042.39
2019-06-07T01:31:50.272Z,101033.43
2019-06-07T01:34:41.609Z,101030.65
2019-06-07T01:37:33.176Z,101027.86
2019-06-07T01:40:30.377Z,101030.61
2019-06-07T01:43:19.511Z,101031.13
2019-06-07T01:46:11.034Z,101023.89
2019-06-07T01:49:02.640Z,101012.92
2019-06-07T01:51:54.082Z,101006.90
2019-06-07T01:54:58.333Z,101001.15
2019-06-07T01:57:48.158Z,100993.63
2019-06-07T02:00:32.728Z,100990.08
2019-06-07T02:03:26.914Z,100985.39
2019-06-07T02:06:18.442Z,100983.91
2019-06-07T02:09:09.935Z,100982.59
2019-06-07T02:12:01.291Z,100975.56
2019-06-07T02:14:52.889Z,100976.26
2019-06-07T02:17:44.743Z,100967.11
2019-06-07T02:20:36.952Z,100966.89
2019-06-07T02:23:31.672Z,100959.83
2019-06-07T02:26:22.890Z,100956.36
2019-06-07T02:29:14.820Z,100950.88
2019-06-07T02:32:06.206Z,100948.00
2019-06-07T02:34:57.745Z,100948.23
2019-06-07T02:37:48.979Z,100953.36
2019-06-07T02:40:40.604Z,100959.27
2019-06-07T02:43:35.136Z,100955.83
2019-06-07T02:46:38.231Z,100952.20
2019-06-07T02:49:20.572Z,100950.69
2019-06-07T02:52:12.221Z,100949.52
2019-06-07T02:55:04.574Z,100940.25
2019-06-07T02:57:56.006Z,100934.55
2019-06-07T03:01:09.324Z,100929.25
2019-06-07T03:03:42.886Z,100924.82
2019-06-07T03:06:39.547Z,100921.58
2019-06-07T03:09:30.742Z,100916.20
2019-06-07T03:12:22.414Z,100914.59
2019-06-07T03:15:32.105Z,100908.95
2019-06-07T03:18:17.429Z,100913.95
2019-06-07T03:21:12.874Z,100904.97
2019-06-07T03:24:04.245Z,100897.18
2019-06-07T03:27:34.028Z,100886.97
2019-06-07T03:29:49.450Z,100875.93
2019-06-07T03:32:47.182Z,100868.63
2019-06-07T03:35:35.301Z,100863.31
2019-06-07T03:38:27.726Z,100857.03
2019-06-07T03:41:19.684Z,100855.59
2019-06-07T03:44:11.213Z,100847.72
2019-06-07T03:47:03.126Z,100848.15
2019-06-07T03:49:54.467Z,100849.47
2019-06-07T03:52:46.631Z,100837.49
2019-06-07T03:55:41.099Z,100835.31
2019-06-07T03:58:37.114Z,100831.66
2019-06-07T04:01:25.309Z,100831.42
2019-06-07T04:04:17.112Z,100818.48
2019-06-07T04:07:08.611Z,100817.53
2019-06-07T04:10:00.762Z,100818.78
2019-06-07T04:12:53.732Z,100807.09
2019-06-07T04:15:45.333Z,100809.95
2019-06-07T04:18:40.851Z,100813.61
2019-06-07T04:21:31.413Z,100809.98
2019-06-07T04:24:23.268Z,100803.69
2019-06-07T04:27:14.898Z,100794.43
2019-06-07T04:30:08.401Z,100791.10
2019-06-07T04:33:00.291Z,100786.59
2019-06-07T04:35:51.781Z,100787.81
2019-06-07T04:38:44.728Z,100779.72
2019-06-07T04:41:39.091Z,100784.20
2019-06-07T04:44:34.934Z,100783.57
2019-06-07T04:47:29.281Z,100788.09
2019-06-07T04:50:20.848Z,100770.98
2019-06-07T04:53:12.303Z,100768.19
2019-06-07T04:56:04.064Z,100764.06
2019-06-07T04:58:55.694Z,100761.62
2019-06-07T05:01:47.516Z,100761.63
2019-06-07T05:04:39.838Z,100752.86
2019-06-07T05:07:32.992Z,100758.58
2019-06-07T05:10:25.499Z,100748.52
2019-06-07T05:13:16.791Z,100737.92
2019-06-07T05:16:08.473Z,100737.84
2019-06-07T05:19:00.034Z,100728.67
2019-06-07T05:22:03.502Z,100738.14
2019-06-07T05:24:44.508Z,100733.52
2019-06-07T05:27:39.212Z,100728.84
2019-06-07T05:31:02.076Z,100725.11
2019-06-07T05:33:31.153Z,100720.53
2019-06-07T05:36:22.634Z,100707.51
2019-06-07T05:39:14.321Z,100698.60
2019-06-07T05:42:05.720Z,100688.65
2019-06-07T05:44:57.014Z,100686.00
2019-06-07T05:47:50.919Z,100674.47
2019-06-07T05:50:55.338Z,100666.02
2019-06-07T05:53:34.716Z,100656.16
2019-06-07T05:56:26.370Z,100651.98
2019-06-07T05:59:18.529Z,100644.31
2019-06-07T06:02:22.222Z,100648.49
2019-06-07T06:05:04.561Z,100647.11
2019-06-07T06:07:55.930Z,100641.52
2019-06-07T06:10:48.871Z,100643.27
2019-06-07T06:14:03.515Z,100631.14
2019-06-07T06:16:34.598Z,100625.30
2019-06-07T06:19:26.161Z,100614.69
2019-06-07T06:22:17.658Z,100609.95
2019-06-07T06:25:32.006Z,100609.81
2019-06-07T06:28:10.969Z,100606.28
2019-06-07T06:30:56.220Z,100609.34
2019-06-07T06:33:49.922Z,100602.75
2019-06-07T06:36:44.649Z,100604.45
2019-06-07T06:39:34.272Z,100598.62
2019-06-07T06:42:25.663Z,100598.51
2019-06-07T06:45:19.242Z,100590.03
2019-06-07T06:48:10.856Z,100588.50
2019-06-07T06:51:03.492Z,100583.45
2019-06-07T06:53:55.243Z,100584.05
2019-06-07T06:56:47.556Z,100576.44
2019-06-07T06:59:43.680Z,100568.05
2019-06-07T07:03:26.951Z,100555.00
2019-06-07T07:05:30.234Z,100546.34
2019-06-07T07:08:21.571Z,100534.67
2019-06-07T07:11:13.194Z,100518.52
2019-06-07T07:14:04.888Z,100509.23
2019-06-07T07:16:56.730Z,100512.99
2019-06-07T07:19:50.376Z,100513.20
2019-06-07T07:22:42.745Z,100492.49
2019-06-07T07:25:34.541Z,100491.80
2019-06-07T07:28:25.778Z,100486.96
2019-06-07T07:31:17.263Z,100473.16
2019-06-07T07:37:01.635Z,100474.59
2019-06-07T07:40:01.226Z,100473.36
2019-06-07T07:42:47.528Z,100474.77
2019-06-07T07:45:39.391Z,100469.58
2019-06-07T07:48:31.799Z,100463.47
2019-06-07T07:51:23.490Z,100458.67
2019-06-07T07:54:15.337Z,100445.81
2019-06-07T07:57:06.972Z,100435.42
2019-06-07T08:00:36.184Z,100430.88
2019-06-07T08:02:53.775Z,100422.89
2019-06-07T08:05:46.613Z,100424.61
2019-06-07T08:08:38.152Z,100425.55
2019-06-07T08:11:29.911Z,100423.67
2019-06-07T08:14:21.855Z,100422.16
2019-06-07T08:17:13.849Z,100408.17
2019-06-07T08:20:06.054Z,100406.65
2019-06-07T08:22:59.710Z,100397.95
2019-06-07T08:25:52.703Z,100394.02
2019-06-07T08:28:43.592Z,100379.41
2019-06-07T08:31:35.285Z,100377.25
2019-06-07T08:34:26.575Z,100382.86
2019-06-07T08:37:18.718Z,100381.19
2019-06-07T08:40:11.351Z,100371.97
2019-06-07T08:43:18.134Z,100356.11
2019-06-07T08:46:02.315Z,100354.31
2019-06-07T08:48:51.711Z,100358.27
2019-06-07T08:51:44.426Z,100351.51
2019-06-07T08:54:35.733Z,100356.20
2019-06-07T08:57:27.014Z,100351.38
2019-06-07T09:00:43.234Z,100354.91
2019-06-07T09:03:12.449Z,100339.87
2019-06-07T09:06:16.463Z,100343.03
2019-06-07T09:09:00.370Z,100322.07
2019-06-07T09:11:49.814Z,100328.63
2019-06-07T09:14:59.063Z,100329.32
2019-06-07T09:17:35.538Z,100327.63
2019-06-07T09:20:45.264Z,100325.48
2019-06-07T09:23:36.582Z,100323.12
2019-06-07T09:26:28.205Z,100316.88
2019-06-07T09:29:20.047Z,100317.25
2019-06-07T09:32:17.938Z,100312.99
2019-06-07T09:35:11.336Z,100303.08
2019-06-07T09:38:18.017Z,100300.30
2019-06-07T09:40:51.112Z,100311.00
2019-06-07T09:46:36.566Z,100287.62
2019-06-07T09:49:32.466Z,100289.41
2019-06-07T09:52:21.500Z,100280.70
2019-06-07T09:55:23.775Z,100287.44
2019-06-07T09:58:47.619Z,100287.00
2019-06-07T10:01:03.948Z,100288.44
2019-06-07T10:03:52.099Z,100284.17
2019-06-07T10:06:43.427Z,100265.41
2019-06-07T10:10:09.840Z,100278.20
2019-06-07T10:12:28.214Z,100267.95
2019-06-07T10:15:19.716Z,100266.66
2019-06-07T10:18:11.249Z,100276.73
2019-06-07T10:21:03.729Z,100278.45
2019-06-07T10:23:55.225Z,100278.22
2019-06-07T10:26:46.732Z,100273.44
2019-06-07T10:29:38.072Z,100283.07
2019-06-07T10:32:30.151Z,100287.20
2019-06-07T10:35:21.657Z,100291.16
2019-06-07T10:38:13.116Z,100293.59
2019-06-07T10:41:04.800Z,100300.53
2019-06-07T10:43:56.150Z,100315.99
2019-06-07T10:46:47.715Z,100309.17
2019-06-07T10:49:39.192Z,100306.34
2019-06-07T10:52:30.482Z,100308.70
2019-06-07T10:55:22.464Z,100315.74
2019-06-07T10:58:13.779Z,100318.14
2019-06-07T11:01:07.249Z,100319.06
2019-06-07T11:03:59.225Z,100325.90
2019-06-07T11:06:51.315Z,100324.27
2019-06-07T11:09:43.450Z,100322.92
2019-06-07T11:12:35.993Z,100331.13
2019-06-07T11:15:27.515Z,100326.45
2019-06-07T11:18:18.991Z,100339.75
2019-06-07T11:21:10.248Z,100344.41
2019-06-07T11:24:01.813Z,100338.89
2019-06-07T11:26:53.166Z,100334.55
2019-06-07T11:29:44.653Z,100328.37
2019-06-07T11:32:36.132Z,100332.05
2019-06-07T11:35:27.516Z,100334.78
2019-06-07T11:38:19.145Z,100326.44
2019-06-07T11:41:11.581Z,100333.88
2019-06-07T11:44:03.857Z,100336.92
2019-06-07T11:46:55.229Z,100343.67
2019-06-07T11:49:46.545Z,100345.88
2019-06-07T11:52:39.914Z,100349.23
2019-06-07T11:55:31.452Z,100355.56
2019-06-07T11:58:22.902Z,100350.64
2019-06-07T12:01:17.164Z,100367.88
2019-06-07T12:04:09.490Z,100380.22
2019-06-07T12:07:01.061Z,100386.06
2019-06-07T12:09:56.308Z,100383.62
2019-06-07T12:12:45.484Z,100380.11
2019-06-07T12:15:37.639Z,100383.06
2019-06-07T12:18:29.292Z,100386.02
2019-06-07T12:21:20.895Z,100381.38
2019-06-07T12:24:12.250Z,100375.72
2019-06-07T12:27:03.794Z,100373.64
2019-06-07T12:29:55.180Z,100361.09
2019-06-07T12:32:46.529Z,100356.95
2019-06-07T12:35:38.135Z,100359.05
2019-06-07T12:38:29.410Z,100364.45
2019-06-07T12:41:20.829Z,100362.41
2019-06-07T12:44:12.798Z,100347.58
2019-06-07T12:47:04.303Z,100348.33
2019-06-07T12:49:55.768Z,100354.23
2019-06-07T12:52:47.448Z,100372.52
2019-06-07T12:55:38.742Z,100383.20
2019-06-07T12:58:35.321Z,100361.27
2019-06-07T13:01:24.760Z,100369.23
2019-06-07T13:04:16.420Z,100359.68
2019-06-07T13:07:07.759Z,100361.09
2019-06-07T13:09:59.149Z,100355.13
2019-06-07T13:12:50.505Z,100346.84
2019-06-07T13:15:41.970Z,100343.62
2019-06-07T13:18:33.972Z,100320.04
2019-06-07T13:21:25.654Z,100313.93
2019-06-07T13:24:18.753Z,100333.79
2019-06-07T13:27:10.014Z,100335.45
2019-06-07T13:30:09.162Z,100346.39
2019-06-07T13:32:54.228Z,100339.02
2019-06-07T13:35:46.110Z,100349.63
2019-06-07T13:38:37.728Z,100364.94
2019-06-07T13:41:40.494Z,100350.05
2019-06-07T13:44:22.941Z,100354.94
2019-06-07T13:47:14.674Z,100349.70
2019-06-07T13:50:07.077Z,100354.89
2019-06-07T13:52:58.600Z,100362.20
2019-06-07T13:55:49.880Z,100350.45
2019-06-07T13:58:41.225Z,100347.73
2019-06-07T14:01:32.516Z,100351.12
2019-06-07T14:04:24.888Z,100346.34
2019-06-07T14:07:16.365Z,100348.94
2019-06-07T14:10:11.434Z,100360.42
2019-06-07T14:13:01.116Z,100347.86
2019-06-07T14:15:52.740Z,100336.56
2019-06-07T14:18:44.267Z,100345.90
2019-06-07T14:21:35.861Z,100331.66
2019-06-07T14:24:27.238Z,100337.02
2019-06-07T14:27:18.911Z,100343.98
2019-06-07T14:30:10.715Z,100317.34
2019-06-07T14:33:02.481Z,100333.20
2019-06-07T14:35:55.109Z,100303.37
2019-06-07T14:38:46.404Z,100324.42
2019-06-07T14:41:37.698Z,100325.48
2019-06-07T14:44:29.870Z,100346.14
2019-06-07T14:47:21.135Z,100345.38
2019-06-07T14:50:15.156Z,100342.09
2019-06-07T14:53:06.507Z,100326.79
2019-06-07T14:55:57.858Z,100317.80
2019-06-07T14:58:49.431Z,100288.94
2019-06-07T15:01:41.022Z,100305.35
2019-06-07T15:04:33.118Z,100296.59
2019-06-07T15:07:26.786Z,100302.48
2019-06-07T15:10:18.603Z,100317.89
2019-06-07T15:13:10.199Z,100313.87
2019-06-07T15:16:01.961Z,100321.66
2019-06-07T15:18:54.768Z,100300.72
2019-06-07T15:21:46.213Z,100308.27
2019-06-07T15:24:40.521Z,100300.19
2019-06-07T15:27:32.968Z,100305.34
2019-06-07T15:30:24.774Z,100305.17
2019-06-07T15:33:16.340Z,100306.00
2019-06-07T15:36:07.742Z,100294.25
2019-06-07T15:38:59.061Z,100298.59
2019-06-07T15:41:50.342Z,100300.02
2019-06-07T15:44:41.783Z,100294.11
2019-06-07T15:47:33.811Z,100287.94
2019-06-07T15:50:28.644Z,100286.70
2019-06-07T15:53:18.750Z,100299.44
2019-06-07T15:56:10.138Z,100281.44
2019-06-07T15:59:01.770Z,100279.78
2019-06-07T16:01:53.926Z,100263.02
2019-06-07T16:04:45.620Z,100282.33
2019-06-07T16:07:38.350Z,100280.02
2019-06-07T16:10:30.444Z,100272.05
2019-06-07T16:13:22.031Z,100268.59
2019-06-07T16:16:13.628Z,100258.89
2019-06-07T16:19:05.201Z,100252.97
2019-06-07T16:21:56.518Z,100249.84
2019-06-07T16:24:48.320Z,100252.09
2019-06-07T16:27:40.620Z,100258.05
2019-06-07T16:30:32.262Z,100252.67
2019-06-07T16:33:23.535Z,100255.89
2019-06-07T16:36:15.000Z,100247.13
2019-06-07T16:39:08.553Z,100245.58
2019-06-07T16:42:00.104Z,100245.11
2019-06-07T16:44:51.539Z,100241.17
2019-06-07T16:47:45.292Z,100235.82
2019-06-07T16:50:36.707Z,100222.22
2019-06-07T16:53:28.568Z,100215.22
2019-06-07T16:56:19.925Z,100217.09
2019-06-07T16:59:11.123Z,100196.39
2019-06-07T17:02:02.459Z,100199.32
2019-06-07T17:04:54.128Z,100205.20
2019-06-07T17:07:46.909Z,100213.33
2019-06-07T17:10:40.101Z,100211.59
2019-06-07T17:13:33.826Z,100215.05
2019-06-07T17:16:24.531Z,100205.48
2019-06-07T17:19:15.781Z,100204.76
2019-06-07T17:22:07.286Z,100189.17
2019-06-07T17:24:58.689Z,100201.28
2019-06-07T17:27:50.354Z,100189.45
2019-06-07T17:30:41.869Z,100198.95
2019-06-07T17:33:34.147Z,100199.50
2019-06-07T17:36:25.498Z,100197.30
2019-06-07T17:39:17.617Z,100196.59
2019-06-07T17:42:08.907Z,100198.22
2019-06-07T17:45:00.290Z,100204.24
2019-06-07T17:47:52.137Z,100200.00
2019-06-07T17:50:44.068Z,100205.71
2019-06-07T17:53:35.406Z,100195.80
2019-06-07T17:56:26.954Z,100202.55
2019-06-07T17:59:18.533Z,100199.81
2019-06-07T18:02:14.937Z,100191.38
2019-06-07T18:05:03.426Z,100183.63
2019-06-07T18:07:56.161Z,100179.91
2019-06-07T18:10:49.921Z,100177.31
2019-06-07T18:13:41.556Z,100179.80
2019-06-07T18:16:33.012Z,100186.91
2019-06-07T18:19:24.399Z,100181.67
2019-06-07T18:22:15.781Z,100192.80
2019-06-07T18:25:09.645Z,100195.98
2019-06-07T18:28:01.016Z,100188.69
2019-06-07T18:30:52.848Z,100213.13
2019-06-07T18:33:44.357Z,100192.13
2019-06-07T18:36:35.895Z,100193.37
2019-06-07T18:39:27.541Z,100201.03
2019-06-07T18:42:18.888Z,100191.77
2019-06-07T18:45:10.460Z,100190.05
2019-06-07T18:48:01.924Z,100196.14
2019-06-07T18:50:54.622Z,100195.86
2019-06-07T18:53:47.522Z,100202.27
2019-06-07T18:56:40.022Z,100212.38
2019-06-07T18:59:31.541Z,100204.05
2019-06-07T19:02:23.009Z,100207.19
2019-06-07T19:05:16.368Z,100202.94
2019-06-07T19:08:08.279Z,100195.64
2019-06-07T19:11:00.570Z,100203.44
2019-06-07T19:13:53.009Z,100194.30
2019-06-07T19:16:45.247Z,100208.09
2019-06-07T19:19:38.590Z,100205.72
2019-06-07T19:22:30.134Z,100198.75
2019-06-07T19:25:21.620Z,100201.56
2019-06-07T19:28:13.308Z,100197.33
2019-06-07T19:31:04.717Z,100192.34
2019-06-07T19:33:57.213Z,100199.58
2019-06-07T19:36:49.263Z,100195.12
2019-06-07T19:39:40.885Z,100188.95
2019-06-07T19:42:33.092Z,100183.34
2019-06-07T19:45:30.210Z,100187.03
2019-06-07T19:48:18.722Z,100189.64
2019-06-07T19:51:10.217Z,100176.96
2019-06-07T19:54:03.647Z,100185.13
2019-06-07T19:56:55.496Z,100170.45
2019-06-07T19:59:48.334Z,100152.86
2019-06-07T20:02:39.876Z,100169.75
2019-06-07T20:05:33.825Z,100175.80
2019-06-07T20:08:24.722Z,100170.30
2019-06-07T20:11:16.309Z,100193.99
2019-06-07T20:14:07.864Z,100189.75
2019-06-07T20:16:59.994Z,100183.25
2019-06-07T20:19:52.935Z,100182.15
2019-06-07T20:22:44.485Z,100213.61
2019-06-07T20:25:36.182Z,100217.23
2019-06-07T20:28:28.224Z,100215.03
2019-06-07T20:31:19.843Z,100218.80
2019-06-07T20:34:11.808Z,100227.34
2019-06-07T20:37:05.478Z,100228.62
2019-06-07T20:39:57.034Z,100242.33
2019-06-07T20:42:49.616Z,100240.09
2019-06-07T20:45:41.991Z,100246.53
2019-06-07T20:48:33.287Z,100252.67
2019-06-07T20:51:24.516Z,100253.20
2019-06-07T20:54:16.264Z,100245.58
2019-06-07T20:57:08.850Z,100243.10
2019-06-07T21:00:10.400Z,100247.81
2019-06-07T21:02:55.764Z,100250.53
2019-06-07T21:05:47.925Z,100253.87
2019-06-07T21:08:39.323Z,100250.96
2019-06-07T21:11:30.974Z,100259.16
2019-06-07T21:14:22.620Z,100253.55
2019-06-07T21:17:14.135Z,100253.55
2019-06-07T21:20:08.191Z,100244.66
2019-06-07T21:22:58.675Z,100236.72
2019-06-07T21:25:49.994Z,100234.98
2019-06-07T21:28:41.553Z,100238.08
2019-06-07T21:31:33.071Z,100245.84
2019-06-07T21:34:24.605Z,100234.58
2019-06-07T21:37:16.113Z,100229.72
2019-06-07T21:40:08.437Z,100228.43
2019-06-07T21:43:00.133Z,100234.11
2019-06-07T21:46:04.397Z,100225.85
2019-06-07T21:48:44.685Z,100207.73
2019-06-07T21:51:35.955Z,100208.02
2019-06-07T21:54:27.412Z,100211.02
2019-06-07T21:57:18.789Z,100214.66
2019-06-07T22:00:15.358Z,100230.50
2019-06-07T22:03:09.390Z,100214.53
2019-06-07T22:06:01.147Z,100229.19
2019-06-07T22:08:53.364Z,100222.02
2019-06-07T22:11:45.806Z,100236.05
2019-06-07T22:14:37.434Z,100230.07
2019-06-07T22:17:28.980Z,100245.49
2019-06-07T22:20:20.794Z,100241.89
2019-06-07T22:23:12.764Z,100253.74
2019-06-07T22:26:04.924Z,100256.59
2019-06-07T22:28:56.461Z,100254.13
2019-06-07T22:31:47.988Z,100272.60
2019-06-07T22:34:39.680Z,100249.46
2019-06-07T22:37:31.026Z,100267.51
2019-06-07T22:40:24.086Z,100283.14
2019-06-07T22:43:15.994Z,100269.69
2019-06-07T22:46:08.706Z,100280.41
2019-06-07T22:49:00.797Z,100266.31
2019-06-07T22:51:59.482Z,100280.23
2019-06-07T22:54:45.763Z,100286.74
2019-06-07T22:57:58.695Z,100307.00
2019-06-07T23:00:50.168Z,100316.06
2019-06-07T23:03:41.660Z,100316.13
2019-06-07T23:06:33.194Z,100327.39
2019-06-07T23:09:24.465Z,100323.53
2019-06-07T23:12:17.410Z,100320.47
2019-06-07T23:15:09.492Z,100318.23
2019-06-07T23:18:00.777Z,100320.28
2019-06-07T23:20:52.106Z,100317.91
2019-06-07T23:23:43.461Z,100336.25
2019-06-07T23:26:34.943Z,100331.38
2019-06-07T23:29:26.404Z,100344.11
2019-06-07T23:32:20.165Z,100340.78
2019-06-07T23:35:11.038Z,100342.45
2019-06-07T23:38:03.077Z,100358.93
2019-06-07T23:40:54.471Z,100368.28
2019-06-07T23:43:46.059Z,100368.53
2019-06-07T23:46:37.665Z,100372.80
2019-06-07T23:49:28.929Z,100370.84
2019-06-07T23:52:22.094Z,100380.38
2019-06-07T23:55:15.888Z,100393.25
2019-06-07T23:58:08.337Z,100394.59
